Mc Clellan-Palomar Airport
KCRQ : now visible

Airfield :











YOU CAN JOIN US ON...

 
LOGIN :

Register | Disclaimer

   EN    FR    IT 

 









Legend :    VFR   Marginal VFR   IFR   Intensive IFR   Very Intensive IFR
Visi :
Ceiling :
>= 8 km
>= 3000ft
5 to 8 km
1000 to 3000 ft
1500m to 5 km
500 to 1000 ft
800 to 1500m
200 to 500 ft
< 800m
< 200 ft
Symbols :   Thunderstorms  Fog  Heavy snow  Heavy precipitations  Wind > 20 kt






- Airport Elevation : 331 ft


KCRQ - Mc Clellan-Palomar

CURRENT METAR :
  • 070053Z 20006KT 1 3/4SM RA BR SCT004 OVC018 13/12 A2997 RMK AO2 RAB02 SLP148 P0019 T01280117 $

EXPIRED METARs :
  • 070023Z 19008KT 1 1/4SM R24/5000V5500FT RA BR BKN004 OVC016 13/12 A2996 RMK AO2 RAB02 P0005 T01330122 $
  • 070013Z 19008KT 1 3/4SM R24/5000VP6000FT RA BR OVC006 13/12 A2995 RMK AO2 RAB02 CIG 003V008 P0001 T01330122 $
  • 062353Z 18012KT 9SM OVC006 13/12 A2995 RMK AO2 RAE42 SLP140 P0013 60035 T01330122 10161 20122 58003 $
  • 062342Z 18011KT 7SM OVC005 14/12 A2995 RMK AO2 RAE42 P0013 T01390122 $
  • 062326Z 15007KT 120V190 2SM R24/5500VP6000FT -RA BR BKN006 BKN010 OVC018 13/12 A2995 RMK AO2 P0012 T01330122 $
  • 062306Z 24009G17KT 1SM R24/4000VP6000FT +RA BR SCT005 SCT011 OVC017 12/11 A2995 RMK AO2 P0009 T01220111 $
  • 062253Z 24013KT 1 1/4SM R24/4500VP6000FT RA BR BKN005 BKN009 OVC013 13/12 A2996 RMK AO2 SLP143 P0009 T01330117 $
  • 062239Z 24009KT 2 1/2SM R24/6000VP6000FT -RA BR BKN006 BKN017 OVC023 13/12 A2995 RMK AO2 P0005 T01330117 $
  • 062222Z 22014G24KT 1 1/2SM R24/5500VP6000FT -RA BR FEW006 BKN019 OVC025 13/12 A2995 RMK AO2 P0003 T01330117 $
  • 062214Z 22017G22KT 2 1/2SM R24/6000VP6000FT -RA BR BKN009 BKN013 OVC025 14/12 A2995 RMK AO2 P0002 T01390117 $
  • 062211Z 20013G19KT 3SM RA BR FEW006 BKN010 OVC021 14/12 A2995 RMK AO2 P0002 T01390117 $
  • 062156Z 19010G17KT 3SM -RA BR BKN008 OVC015 14/12 A2995 RMK AO2 P0000 T01390122 $

TAF KCRQ
Valid from the 07 at 00:00 until the 08 at 00:00 UTC


070023Z 0700/0724 22010KT 5SM RA SCT006 OVC015
TEMPO 0700/0702 2SM RA OVC006
FM070400 VRB04KT 5SM -SHRA SCT010 OVC020
FM071000 VRB04KT P6SM VCSH SCT015 OVC025
FM072100 24008KT 3SM SHRA SCT007 OVC015



MET'MAP, your aeronautical weather chart ! - Copyright ORBIFLY December 2007 - Disclaimer

ORBIFLY MET'MAP TEAM :

Programming & Development : Alexandra Zaïnal
Concept & original design : Baudouin d'Aumeries
Assistance for programming : Marc-Olivier Méhu
Technical & hardware support : Manuel Goepfert

Contact : metmap@orbifly.com




SOURCES & CREDITS :

   NOAA       Earth
Advisory